createdAt,value
2016-08-14T00:00:17.653Z,13.69
2016-08-14T00:01:17.636Z,13.7
2016-08-14T00:02:17.723Z,13.72
2016-08-14T00:03:17.612Z,13.69
2016-08-14T00:04:17.638Z,13.68
2016-08-14T00:05:17.641Z,13.53
2016-08-14T00:06:17.652Z,13.55
2016-08-14T00:07:17.634Z,13.54
2016-08-14T00:08:17.613Z,13.6
2016-08-14T00:09:17.586Z,13.58
2016-08-14T00:10:17.609Z,13.53
2016-08-14T00:11:17.601Z,13.48
2016-08-14T00:12:17.572Z,13.53
2016-08-14T00:13:17.568Z,13.48
2016-08-14T00:14:17.588Z,13.44
2016-08-14T00:15:17.579Z,13.48
2016-08-14T00:16:17.562Z,13.48
2016-08-14T00:17:17.559Z,13.45
2016-08-14T00:18:17.567Z,13.44
2016-08-14T00:19:17.559Z,13.42
2016-08-14T00:20:17.536Z,13.45
2016-08-14T00:21:17.554Z,13.39
2016-08-14T00:22:17.541Z,13.35
2016-08-14T00:23:17.518Z,13.29
2016-08-14T00:24:17.515Z,13.37
2016-08-14T00:25:17.520Z,13.24
2016-08-14T00:26:17.522Z,13.25
2016-08-14T00:27:17.507Z,13.2
2016-08-14T00:28:17.517Z,13.29
2016-08-14T00:29:17.509Z,13.21
2016-08-14T00:30:17.512Z,13.27
2016-08-14T00:31:18.209Z,13.14
2016-08-14T00:32:17.494Z,13.1
2016-08-14T00:33:17.504Z,13.11
2016-08-14T00:34:18.261Z,13.09
2016-08-14T00:35:17.476Z,13.11
2016-08-14T00:36:17.476Z,13.1
2016-08-14T00:37:17.477Z,13.09
2016-08-14T00:38:17.475Z,13.06
2016-08-14T00:39:17.461Z,13.11
2016-08-14T00:40:17.547Z,13.03
2016-08-14T00:41:17.501Z,13.1
2016-08-14T00:42:17.420Z,12.92
2016-08-14T00:43:17.420Z,12.92
2016-08-14T00:44:18.177Z,12.96
2016-08-14T00:45:17.433Z,12.95
2016-08-14T00:46:17.409Z,12.94
2016-08-14T00:47:17.445Z,13.06
2016-08-14T00:48:17.423Z,12.96
2016-08-14T00:49:17.421Z,13.03
2016-08-14T00:50:17.424Z,12.94
2016-08-14T00:51:17.393Z,13.07
2016-08-14T00:52:17.400Z,12.95
2016-08-14T00:53:17.398Z,12.95
2016-08-14T00:54:17.533Z,12.95
2016-08-14T00:55:18.143Z,12.94
2016-08-14T00:56:17.379Z,12.95
2016-08-14T00:57:17.358Z,13.03
2016-08-14T00:58:17.360Z,12.99
2016-08-14T00:59:17.364Z,12.92
2016-08-14T01:00:17.363Z,12.99
2016-08-14T01:01:17.339Z,12.96
2016-08-14T01:02:17.330Z,12.96
2016-08-14T01:03:17.349Z,12.96
2016-08-14T01:04:17.322Z,12.94
2016-08-14T01:05:19.556Z,12.95
2016-08-14T01:06:17.303Z,13.09
2016-08-14T01:07:17.309Z,13.09
2016-08-14T01:08:17.297Z,13.03
2016-08-14T01:09:17.300Z,13.11
2016-08-14T01:10:17.295Z,13.2
2016-08-14T01:11:17.296Z,13.27
2016-08-14T01:12:17.281Z,13.13
2016-08-14T01:13:17.288Z,13.11
2016-08-14T01:14:17.368Z,13.21
2016-08-14T01:15:17.292Z,13.24
2016-08-14T01:16:17.347Z,13.13
2016-08-14T01:17:17.262Z,13.13
2016-08-14T01:18:17.252Z,13.07
2016-08-14T01:19:17.278Z,13.1
2016-08-14T01:20:17.240Z,13.01
2016-08-14T01:21:18.005Z,12.89
2016-08-14T01:22:17.232Z,12.96
2016-08-14T01:23:17.265Z,12.92
2016-08-14T01:24:17.251Z,12.95
2016-08-14T01:25:17.245Z,12.91
2016-08-14T01:26:17.222Z,12.89
2016-08-14T01:27:17.250Z,12.86
2016-08-14T01:28:17.227Z,12.89
2016-08-14T01:29:17.204Z,12.84
2016-08-14T01:30:17.203Z,12.8
2016-08-14T01:31:17.915Z,12.78
2016-08-14T01:32:17.282Z,12.76
2016-08-14T01:33:17.210Z,12.73
2016-08-14T01:34:17.181Z,12.65
2016-08-14T01:35:17.181Z,12.66
2016-08-14T01:36:17.182Z,12.62
2016-08-14T01:37:17.164Z,12.66
2016-08-14T01:38:17.181Z,12.65
2016-08-14T01:39:17.177Z,12.56
2016-08-14T01:40:17.148Z,12.59
2016-08-14T01:41:17.145Z,12.62
2016-08-14T01:42:17.174Z,12.62
2016-08-14T01:43:17.135Z,12.59
2016-08-14T01:44:17.138Z,12.59
2016-08-14T01:45:17.159Z,12.56
2016-08-14T01:46:17.128Z,12.47
2016-08-14T01:47:17.130Z,12.4
2016-08-14T01:48:17.109Z,12.48
2016-08-14T01:49:17.115Z,12.38
2016-08-14T01:50:17.154Z,12.44
2016-08-14T01:51:17.911Z,12.41
2016-08-14T01:52:17.100Z,12.4
2016-08-14T01:53:17.103Z,12.41
2016-08-14T01:54:17.082Z,12.44
2016-08-14T01:55:17.102Z,12.41
2016-08-14T01:56:17.128Z,12.45
2016-08-14T01:57:17.090Z,12.28
2016-08-14T01:58:18.056Z,12.33
2016-08-14T01:59:17.056Z,12.28
2016-08-14T02:00:17.122Z,12.38
2016-08-14T02:01:17.116Z,12.43
2016-08-14T02:02:17.062Z,12.28
2016-08-14T02:03:17.040Z,12.36
2016-08-14T02:04:17.063Z,12.25
2016-08-14T02:05:17.040Z,12.36
2016-08-14T02:06:18.070Z,12.36
2016-08-14T02:07:17.163Z,12.38
2016-08-14T02:08:17.051Z,12.4
2016-08-14T02:09:17.777Z,12.33
2016-08-14T02:10:17.018Z,12.26
2016-08-14T02:11:17.041Z,12.31
2016-08-14T02:12:17.001Z,12.37
2016-08-14T02:13:17.770Z,12.31
2016-08-14T02:14:16.986Z,12.19
2016-08-14T02:15:17.006Z,12.22
2016-08-14T02:16:16.993Z,12.22
2016-08-14T02:17:17.097Z,12.2
2016-08-14T02:18:17.077Z,12.29
2016-08-14T02:19:16.966Z,12.22
2016-08-14T02:20:16.968Z,12.2
2016-08-14T02:21:17.717Z,12.23
2016-08-14T02:22:16.991Z,12.18
2016-08-14T02:23:16.945Z,12.23
2016-08-14T02:24:17.032Z,12.22
2016-08-14T02:25:16.935Z,12.34
2016-08-14T02:26:16.981Z,12.29
2016-08-14T02:27:17.623Z,12.36
2016-08-14T02:28:16.912Z,12.34
2016-08-14T02:29:16.902Z,12.36
2016-08-14T02:30:16.905Z,12.33
2016-08-14T02:31:16.923Z,12.29
2016-08-14T02:32:16.907Z,12.34
2016-08-14T02:33:16.898Z,12.41
2016-08-14T02:34:16.877Z,12.38
2016-08-14T02:35:16.902Z,12.38
2016-08-14T02:36:16.890Z,12.38
2016-08-14T02:37:16.854Z,12.41
2016-08-14T02:38:16.855Z,12.36
2016-08-14T02:39:16.847Z,12.43
2016-08-14T02:40:16.890Z,12.41
2016-08-14T02:41:16.845Z,12.44
2016-08-14T02:42:16.861Z,12.31
2016-08-14T02:43:16.830Z,12.28
2016-08-14T02:44:16.822Z,12.29
2016-08-14T02:45:16.829Z,12.33
2016-08-14T02:46:16.830Z,12.36
2016-08-14T02:47:16.812Z,12.29
2016-08-14T02:48:17.514Z,12.26
2016-08-14T02:49:16.805Z,12.29
2016-08-14T02:50:17.534Z,12.33
2016-08-14T02:51:16.776Z,12.33
2016-08-14T02:52:16.770Z,12.29
2016-08-14T02:53:16.795Z,12.29
2016-08-14T02:54:16.781Z,12.28
2016-08-14T02:55:16.770Z,12.29
2016-08-14T02:56:16.767Z,12.23
2016-08-14T02:57:16.760Z,12.23
2016-08-14T02:58:16.789Z,12.26
2016-08-14T02:59:16.758Z,12.22
2016-08-14T03:00:16.760Z,12.18
2016-08-14T03:01:16.766Z,12.19
2016-08-14T03:02:16.732Z,12.2
2016-08-14T03:03:16.731Z,12.16
2016-08-14T03:04:16.726Z,12.18
2016-08-14T03:05:16.733Z,12.16
2016-08-14T03:06:16.724Z,12.16
2016-08-14T03:07:16.684Z,12.16
2016-08-14T03:08:16.708Z,12.19
2016-08-14T03:09:16.807Z,12.13
2016-08-14T03:10:16.685Z,12.16
2016-08-14T03:11:16.749Z,12.19
2016-08-14T03:12:16.686Z,12.18
2016-08-14T03:13:16.716Z,12.13
2016-08-14T03:14:16.711Z,12.16
2016-08-14T03:15:16.666Z,12.1
2016-08-14T03:16:16.656Z,12.1
2016-08-14T03:17:16.675Z,12.18
2016-08-14T03:18:16.636Z,12.01
2016-08-14T03:19:16.634Z,12.04
2016-08-14T03:20:16.656Z,12.07
2016-08-14T03:21:16.638Z,12.03
2016-08-14T03:22:16.601Z,12.08
2016-08-14T03:23:16.646Z,12.08
2016-08-14T03:24:16.617Z,11.98
2016-08-14T03:25:17.418Z,12.03
2016-08-14T03:26:16.611Z,12.05
2016-08-14T03:27:16.583Z,12.05
2016-08-14T03:28:16.575Z,12.08
2016-08-14T03:29:16.609Z,12.1
2016-08-14T03:30:16.570Z,12.03
2016-08-14T03:31:16.574Z,11.97
2016-08-14T03:32:16.558Z,12
2016-08-14T03:33:16.552Z,12.03
2016-08-14T03:34:16.527Z,12.03
2016-08-14T03:35:16.722Z,12.03
2016-08-14T03:36:16.539Z,12
2016-08-14T03:37:16.531Z,11.94
2016-08-14T03:38:16.596Z,12
2016-08-14T03:39:16.513Z,12.03
2016-08-14T03:40:16.523Z,12.04
2016-08-14T03:41:16.502Z,12.01
2016-08-14T03:42:16.499Z,11.98
2016-08-14T03:43:16.482Z,12.03
2016-08-14T03:44:16.497Z,12
2016-08-14T03:45:16.550Z,11.98
2016-08-14T03:46:16.465Z,11.97
2016-08-14T03:47:16.443Z,12.01
2016-08-14T03:48:17.175Z,12.01
2016-08-14T03:49:16.456Z,12
2016-08-14T03:50:16.447Z,11.97
2016-08-14T03:51:16.442Z,12.03
2016-08-14T03:52:16.424Z,11.97
2016-08-14T03:53:16.434Z,11.89
2016-08-14T03:54:16.424Z,11.91
2016-08-14T03:55:16.442Z,11.89
2016-08-14T03:56:16.417Z,11.78
2016-08-14T03:57:16.447Z,11.85
2016-08-14T03:58:16.417Z,11.79
2016-08-14T03:59:16.413Z,11.89
2016-08-14T04:00:16.405Z,11.82
2016-08-14T04:01:16.410Z,11.79
2016-08-14T04:02:16.391Z,11.86
2016-08-14T04:03:16.380Z,11.84
2016-08-14T04:04:16.413Z,11.88
2016-08-14T04:05:16.357Z,11.81
2016-08-14T04:06:16.347Z,11.79
2016-08-14T04:07:16.356Z,11.85
2016-08-14T04:08:16.352Z,11.88
2016-08-14T04:09:16.351Z,11.85
2016-08-14T04:10:16.369Z,11.79
2016-08-14T04:11:16.333Z,11.86
2016-08-14T04:12:16.335Z,11.85
2016-08-14T04:13:16.312Z,11.94
2016-08-14T04:14:16.321Z,11.94
2016-08-14T04:15:16.309Z,11.94
2016-08-14T04:16:16.290Z,12.01
2016-08-14T04:17:16.300Z,12.04
2016-08-14T04:18:16.300Z,12.04
2016-08-14T04:19:16.567Z,11.98
2016-08-14T04:20:16.275Z,12.04
2016-08-14T04:21:16.271Z,12.05
2016-08-14T04:22:16.268Z,12.07
2016-08-14T04:23:16.263Z,12.08
2016-08-14T04:24:16.242Z,12.05
2016-08-14T04:25:16.239Z,12.07
2016-08-14T04:26:16.248Z,12.05
2016-08-14T04:28:16.265Z,12.1
2016-08-14T04:29:16.236Z,12.08
2016-08-14T04:30:16.236Z,12.07
2016-08-14T04:31:16.219Z,12.16
2016-08-14T04:32:16.956Z,12.07
2016-08-14T04:33:16.181Z,12.16
2016-08-14T04:34:16.178Z,12.11
2016-08-14T04:35:16.216Z,12.15
2016-08-14T04:36:16.177Z,12.2
2016-08-14T04:37:16.188Z,12.16
2016-08-14T04:38:16.168Z,12.2
2016-08-14T04:39:16.152Z,12.23
2016-08-14T04:40:16.161Z,12.23
2016-08-14T04:41:16.168Z,12.23
2016-08-14T04:42:16.134Z,12.28
2016-08-14T04:43:16.148Z,12.37
2016-08-14T04:44:16.138Z,12.31
2016-08-14T04:45:16.143Z,12.31
2016-08-14T04:46:16.099Z,12.28
2016-08-14T04:47:16.128Z,12.29
2016-08-14T04:48:16.875Z,12.4
2016-08-14T04:49:16.152Z,12.38
2016-08-14T04:50:16.156Z,12.4
2016-08-14T04:51:16.090Z,12.41
2016-08-14T04:52:16.086Z,12.48
2016-08-14T04:53:16.082Z,12.55
2016-08-14T04:54:16.110Z,12.51
2016-08-14T04:55:16.084Z,12.61
2016-08-14T04:56:16.066Z,12.62
2016-08-14T04:57:16.084Z,12.61
2016-08-14T04:58:16.054Z,12.53
2016-08-14T04:59:16.061Z,12.56
2016-08-14T05:00:16.042Z,12.59
2016-08-14T05:01:16.041Z,12.62
2016-08-14T05:02:16.016Z,12.66
2016-08-14T05:03:16.026Z,12.71
2016-08-14T05:04:16.020Z,12.74
2016-08-14T05:05:16.704Z,12.78
2016-08-14T05:06:16.046Z,12.84
2016-08-14T05:07:16.001Z,12.86
2016-08-14T05:08:15.990Z,12.86
2016-08-14T05:09:15.998Z,12.92
2016-08-14T05:10:16.692Z,12.91
2016-08-14T05:11:15.975Z,12.96
2016-08-14T05:12:15.976Z,13.03
2016-08-14T05:13:15.946Z,13.16
2016-08-14T05:14:15.988Z,13.1
2016-08-14T05:15:15.951Z,13.17
2016-08-14T05:16:15.966Z,13.24
2016-08-14T05:17:15.941Z,13.21
2016-08-14T05:18:15.949Z,13.35
2016-08-14T05:19:15.920Z,13.32
2016-08-14T05:20:15.925Z,13.31
2016-08-14T05:21:15.903Z,13.42
2016-08-14T05:22:15.910Z,13.48
2016-08-14T05:23:15.912Z,13.45
2016-08-14T05:24:15.895Z,13.5
2016-08-14T05:25:15.902Z,13.53
2016-08-14T05:26:15.892Z,13.54
2016-08-14T05:27:15.883Z,13.53
2016-08-14T05:28:15.868Z,13.63
2016-08-14T05:29:15.919Z,13.73
2016-08-14T05:30:15.880Z,13.69
2016-08-14T05:31:15.894Z,13.73
2016-08-14T05:32:16.559Z,13.79
2016-08-14T05:33:15.867Z,13.87
2016-08-14T05:34:15.849Z,13.84
2016-08-14T05:35:15.848Z,13.86
2016-08-14T05:36:15.865Z,13.93
2016-08-14T05:37:15.835Z,14.01
2016-08-14T05:38:15.827Z,13.95
2016-08-14T05:39:15.836Z,14.08
2016-08-14T05:40:15.821Z,14.08
2016-08-14T05:41:15.811Z,14.13
2016-08-14T05:42:15.798Z,14.13
2016-08-14T05:43:15.826Z,14.19
2016-08-14T05:44:15.788Z,14.24
2016-08-14T05:45:15.796Z,14.27
2016-08-14T05:46:15.800Z,14.31
2016-08-14T05:47:15.780Z,14.31
2016-08-14T05:48:15.780Z,14.45
2016-08-14T05:49:15.782Z,14.46
2016-08-14T05:50:15.825Z,14.49
2016-08-14T05:51:15.770Z,14.49
2016-08-14T05:52:15.838Z,14.56
2016-08-14T05:53:15.875Z,14.61
2016-08-14T05:54:15.781Z,14.69
2016-08-14T05:55:15.772Z,14.67
2016-08-14T05:56:15.830Z,14.69
2016-08-14T05:57:15.739Z,14.74
2016-08-14T05:58:15.786Z,14.82
2016-08-14T05:59:15.718Z,14.87
2016-08-14T06:00:15.705Z,14.94
2016-08-14T06:01:15.768Z,14.98
2016-08-14T06:02:15.732Z,15.1
2016-08-14T06:03:15.719Z,15.01
2016-08-14T06:04:15.715Z,15.13
2016-08-14T06:05:15.696Z,15.2
2016-08-14T06:06:15.719Z,15.35
2016-08-14T06:07:15.731Z,15.31
2016-08-14T06:08:16.496Z,15.45
2016-08-14T06:09:15.697Z,15.52
2016-08-14T06:10:15.697Z,15.63
2016-08-14T06:11:15.684Z,15.63
2016-08-14T06:12:15.688Z,15.75
2016-08-14T06:13:15.663Z,15.73
2016-08-14T06:14:15.677Z,15.74
2016-08-14T06:15:15.714Z,15.88
2016-08-14T06:16:15.742Z,15.95
2016-08-14T06:17:15.644Z,15.95
2016-08-14T06:18:15.783Z,16.04
2016-08-14T06:19:15.638Z,16.08
2016-08-14T06:20:15.666Z,16.1
2016-08-14T06:21:15.633Z,16.1
2016-08-14T06:22:15.632Z,16.07
2016-08-14T06:23:15.721Z,16.11
2016-08-14T06:24:15.827Z,16.16
2016-08-14T06:25:16.382Z,16.18
2016-08-14T06:26:15.613Z,16.22
2016-08-14T06:27:15.687Z,16.26
2016-08-14T06:28:15.718Z,16.25
2016-08-14T06:29:15.607Z,16.26
2016-08-14T06:30:15.626Z,16.17
2016-08-14T06:31:15.607Z,16.26
2016-08-14T06:32:15.604Z,16.26
2016-08-14T06:33:15.597Z,16.29
2016-08-14T06:34:15.622Z,16.3
2016-08-14T06:35:15.606Z,16.33
2016-08-14T06:36:15.692Z,16.48
2016-08-14T06:37:15.583Z,16.47
2016-08-14T06:38:15.586Z,16.45
2016-08-14T06:39:15.585Z,16.52
2016-08-14T06:40:15.569Z,16.59
2016-08-14T06:41:15.576Z,16.66
2016-08-14T06:42:15.586Z,16.7
2016-08-14T06:43:15.571Z,16.72
2016-08-14T06:44:15.557Z,16.72
2016-08-14T06:45:15.593Z,16.88
2016-08-14T06:46:15.622Z,16.97
2016-08-14T06:47:15.562Z,17.07
2016-08-14T06:48:15.549Z,17.06
2016-08-14T06:49:15.544Z,17.3
2016-08-14T06:50:15.642Z,17.4
2016-08-14T06:51:18.742Z,17.47
2016-08-14T06:54:31.329Z,18.02
2016-08-14T06:55:48.207Z,18.32
2016-08-14T06:56:15.547Z,18.53
2016-08-14T06:57:15.524Z,18.68
2016-08-14T06:58:15.524Z,18.94
2016-08-14T06:59:15.513Z,19.15
2016-08-14T07:00:15.518Z,19.23
2016-08-14T07:01:15.732Z,19.23
2016-08-14T07:02:15.544Z,19.12
2016-08-14T07:03:15.526Z,19.25
2016-08-14T07:04:15.499Z,19.46
2016-08-14T07:05:15.492Z,19.8
2016-08-14T07:06:15.498Z,20.05
2016-08-14T07:07:15.509Z,20.53
2016-08-14T07:08:15.484Z,20.85
2016-08-14T07:09:15.488Z,21.21
2016-08-14T07:10:16.214Z,21.48
2016-08-14T07:11:15.508Z,21.73
2016-08-14T07:12:15.560Z,22.09
2016-08-14T07:13:15.649Z,22.27
2016-08-14T07:14:15.513Z,22.44
2016-08-14T07:15:15.503Z,22.63
2016-08-14T07:16:15.486Z,22.73
2016-08-14T07:17:15.519Z,22.88
2016-08-14T07:18:15.491Z,23.21
2016-08-14T07:19:15.506Z,23.66
2016-08-14T07:20:15.500Z,24.14
2016-08-14T07:21:15.499Z,24.32
2016-08-14T07:22:15.500Z,24.33
2016-08-14T07:23:15.486Z,24.36
2016-08-14T07:24:15.559Z,24.22
2016-08-14T07:25:15.501Z,24.03
2016-08-14T07:26:15.486Z,24.11
2016-08-14T07:27:15.510Z,24.12
2016-08-14T07:28:15.506Z,24.03
2016-08-14T07:29:15.500Z,23.9
2016-08-14T07:30:15.649Z,23.92
2016-08-14T07:31:15.515Z,23.75
2016-08-14T07:32:15.489Z,23.66
2016-08-14T07:33:15.519Z,23.42
2016-08-14T07:34:16.337Z,23.16
2016-08-14T07:35:15.533Z,22.76
2016-08-14T07:36:15.508Z,22.46
2016-08-14T07:37:15.521Z,22.46
2016-08-14T07:38:15.513Z,22.54
2016-08-14T07:39:15.513Z,22.78
2016-08-14T07:40:15.548Z,22.92
2016-08-14T07:41:15.510Z,23.15
2016-08-14T07:42:15.518Z,23.25
2016-08-14T07:43:15.532Z,23.12
2016-08-14T07:44:15.514Z,23.22
2016-08-14T07:45:15.529Z,23.01
2016-08-14T07:46:15.546Z,22.85
2016-08-14T07:47:15.518Z,22.73
2016-08-14T07:48:15.527Z,22.6
2016-08-14T07:49:15.525Z,22.66
2016-08-14T07:50:15.542Z,22.54
2016-08-14T07:51:15.544Z,22.34
2016-08-14T07:52:15.534Z,22.41
2016-08-14T07:53:15.536Z,22.42
2016-08-14T07:54:15.534Z,22.44
2016-08-14T07:55:16.254Z,22.46
2016-08-14T07:56:15.542Z,22.44
2016-08-14T07:57:15.541Z,22.31
2016-08-14T07:58:15.619Z,22.29
2016-08-14T07:59:16.237Z,22.12
2016-08-14T08:00:15.535Z,22
2016-08-14T08:01:15.571Z,22.02
2016-08-14T08:02:15.554Z,21.93
2016-08-14T08:03:15.556Z,21.92
2016-08-14T08:04:15.545Z,21.76
2016-08-14T08:05:15.575Z,21.64
2016-08-14T08:06:15.530Z,21.58
2016-08-14T08:07:15.541Z,21.67
2016-08-14T08:08:15.539Z,21.64
2016-08-14T08:09:15.572Z,21.74
2016-08-14T08:10:15.583Z,21.78
2016-08-14T08:11:15.612Z,21.82
2016-08-14T08:12:15.544Z,21.97
2016-08-14T08:13:15.547Z,21.96
2016-08-14T08:14:15.587Z,21.78
2016-08-14T08:15:15.528Z,21.78
2016-08-14T08:16:15.558Z,21.94
2016-08-14T08:17:15.562Z,21.97
2016-08-14T08:18:15.570Z,21.93
2016-08-14T08:19:15.561Z,21.93
2016-08-14T08:20:15.592Z,22
2016-08-14T08:21:15.560Z,22.02
2016-08-14T08:22:15.544Z,22.05
2016-08-14T08:23:15.555Z,22.33
2016-08-14T08:24:15.544Z,22.46
2016-08-14T08:25:15.538Z,22.55
2016-08-14T08:26:15.572Z,22.57
2016-08-14T08:27:15.553Z,22.76
2016-08-14T08:28:16.320Z,22.86
2016-08-14T08:29:15.552Z,22.97
2016-08-14T08:30:15.643Z,23.14
2016-08-14T08:31:15.542Z,23.06
2016-08-14T08:32:15.540Z,23.18
2016-08-14T08:33:15.548Z,23.12
2016-08-14T08:34:15.556Z,23.06
2016-08-14T08:35:15.558Z,23.03
2016-08-14T08:36:15.591Z,22.89
2016-08-14T08:37:15.551Z,22.71
2016-08-14T08:38:15.561Z,22.81
2016-08-14T08:39:15.578Z,22.76
2016-08-14T08:40:15.561Z,22.88
2016-08-14T08:41:15.557Z,22.86
2016-08-14T08:42:15.579Z,22.79
2016-08-14T08:43:15.614Z,22.86
2016-08-14T08:44:15.566Z,22.91
2016-08-14T08:45:15.574Z,22.97
2016-08-14T08:46:15.583Z,23.09
2016-08-14T08:47:15.560Z,23.01
2016-08-14T08:48:15.565Z,22.96
2016-08-14T08:49:15.573Z,22.99
2016-08-14T08:50:15.567Z,23.09
2016-08-14T08:51:15.573Z,23
2016-08-14T08:52:15.568Z,23.19
2016-08-14T08:53:15.598Z,23.25
2016-08-14T08:54:15.601Z,23.32
2016-08-14T08:55:15.577Z,23.41
2016-08-14T08:56:15.718Z,23.47
2016-08-14T08:57:15.587Z,23.53
2016-08-14T08:58:15.582Z,23.42
2016-08-14T08:59:15.605Z,23.25
2016-08-14T09:00:15.590Z,23.01
2016-08-14T09:01:15.581Z,22.76
2016-08-14T09:02:16.332Z,22.67
2016-08-14T09:03:15.585Z,22.54
2016-08-14T09:04:15.624Z,22.38
2016-08-14T09:05:15.604Z,22.22
2016-08-14T09:06:15.609Z,22.29
2016-08-14T09:07:15.599Z,22.3
2016-08-14T09:08:15.606Z,22.33
2016-08-14T09:09:15.611Z,22.38
2016-08-14T09:10:15.635Z,22.45
2016-08-14T09:11:15.611Z,22.63
2016-08-14T09:12:15.602Z,22.82
2016-08-14T09:13:15.607Z,22.97
2016-08-14T09:14:15.667Z,22.96
2016-08-14T09:15:15.583Z,22.81
2016-08-14T09:16:15.622Z,22.63
2016-08-14T09:17:15.597Z,22.52
2016-08-14T09:18:15.596Z,22.49
2016-08-14T09:19:15.615Z,22.42
2016-08-14T09:20:15.624Z,22.41
2016-08-14T09:21:15.610Z,22.46
2016-08-14T09:22:16.375Z,22.59
2016-08-14T09:23:15.628Z,22.66
2016-08-14T09:24:15.622Z,22.73
2016-08-14T09:25:15.611Z,22.89
2016-08-14T09:26:15.622Z,22.97
2016-08-14T09:27:15.622Z,23.06
2016-08-14T09:28:15.618Z,23.01
2016-08-14T09:29:15.612Z,23.03
2016-08-14T09:30:15.596Z,23.12
2016-08-14T09:31:15.646Z,23.26
2016-08-14T09:32:15.630Z,23.34
2016-08-14T09:33:15.771Z,23.28
2016-08-14T09:34:15.623Z,23.24
2016-08-14T09:35:16.349Z,23.37
2016-08-14T09:36:15.622Z,23.44
2016-08-14T09:37:15.720Z,23.52
2016-08-14T09:38:15.638Z,23.41
2016-08-14T09:39:15.679Z,23.34
2016-08-14T09:40:15.616Z,23.19
2016-08-14T09:41:15.636Z,23.03
2016-08-14T09:42:15.619Z,23
2016-08-14T09:43:15.620Z,22.97
2016-08-14T09:44:15.641Z,23.01
2016-08-14T09:45:15.665Z,23.06
2016-08-14T09:46:15.629Z,23.01
2016-08-14T09:47:15.622Z,22.96
2016-08-14T09:48:15.657Z,22.88
2016-08-14T09:49:15.702Z,22.63
2016-08-14T09:50:15.651Z,22.63
2016-08-14T09:51:15.826Z,22.75
2016-08-14T09:52:15.631Z,23.06
2016-08-14T09:53:15.640Z,23.1
2016-08-14T09:54:15.642Z,23.14
2016-08-14T09:55:15.636Z,23.15
2016-08-14T09:56:16.445Z,23.12
2016-08-14T09:57:15.649Z,22.99
2016-08-14T09:58:15.646Z,22.89
2016-08-14T09:59:15.823Z,22.76
2016-08-14T10:00:15.660Z,22.84
2016-08-14T10:01:15.665Z,22.91
2016-08-14T10:02:15.712Z,23.18
2016-08-14T10:03:15.661Z,23.29
2016-08-14T10:04:15.657Z,23.4
2016-08-14T10:05:15.650Z,23.47
2016-08-14T10:06:15.676Z,23.52
2016-08-14T10:07:15.661Z,23.62
2016-08-14T10:08:15.668Z,23.74
2016-08-14T10:09:15.677Z,23.78
2016-08-14T10:10:15.673Z,23.92
2016-08-14T10:11:15.680Z,24.12
2016-08-14T10:12:15.661Z,24.18
2016-08-14T10:13:15.684Z,24.21
2016-08-14T10:14:15.682Z,24.18
2016-08-14T10:15:15.718Z,24.15
2016-08-14T10:16:15.689Z,24.11
2016-08-14T10:17:15.691Z,23.99
2016-08-14T10:18:15.710Z,24.15
2016-08-14T10:19:15.695Z,24.17
2016-08-14T10:20:15.851Z,24.17
2016-08-14T10:21:15.697Z,24.22
2016-08-14T10:22:15.672Z,24.29
2016-08-14T10:23:15.697Z,24.33
2016-08-14T10:24:15.709Z,24.4
2016-08-14T10:25:15.690Z,24.51
2016-08-14T10:26:16.407Z,24.54
2016-08-14T10:27:15.818Z,24.49
2016-08-14T10:28:16.466Z,24.3
2016-08-14T10:29:15.697Z,24.22
2016-08-14T10:30:15.691Z,23.99
2016-08-14T10:31:15.708Z,23.78
2016-08-14T10:32:15.699Z,23.55
2016-08-14T10:33:15.718Z,23.47
2016-08-14T10:34:15.708Z,23.4
2016-08-14T10:35:15.723Z,23.34
2016-08-14T10:36:15.733Z,23.4
2016-08-14T10:37:15.735Z,23.5
2016-08-14T10:38:15.730Z,23.57
2016-08-14T10:39:15.712Z,23.71
2016-08-14T10:40:15.708Z,23.75
2016-08-14T10:41:15.731Z,23.89
2016-08-14T10:42:15.743Z,23.96
2016-08-14T10:43:15.722Z,23.85
2016-08-14T10:44:15.743Z,23.79
2016-08-14T10:45:15.775Z,23.77
2016-08-14T10:46:15.751Z,23.63
2016-08-14T10:47:15.730Z,23.66
2016-08-14T10:48:15.753Z,23.47
2016-08-14T10:49:15.763Z,23.4
2016-08-14T10:50:15.754Z,23.4
2016-08-14T10:51:15.742Z,23.35
2016-08-14T10:52:15.743Z,23.41
2016-08-14T10:53:15.770Z,23.41
2016-08-14T10:54:15.748Z,23.5
2016-08-14T10:55:15.749Z,23.48
2016-08-14T10:56:15.748Z,23.52
2016-08-14T10:57:15.766Z,23.66
2016-08-14T10:58:15.760Z,23.67
2016-08-14T10:59:15.766Z,23.78
2016-08-14T11:00:15.782Z,23.77
2016-08-14T11:01:15.758Z,23.75
2016-08-14T11:02:15.806Z,23.71
2016-08-14T11:03:15.877Z,23.67
2016-08-14T11:04:15.846Z,23.52
2016-08-14T11:05:15.772Z,23.52
2016-08-14T11:06:15.819Z,23.45
2016-08-14T11:07:16.508Z,23.47
2016-08-14T11:08:15.783Z,23.64
2016-08-14T11:09:16.485Z,23.62
2016-08-14T11:10:15.798Z,23.66
2016-08-14T11:11:15.793Z,23.71
2016-08-14T11:12:15.790Z,23.92
2016-08-14T11:13:15.781Z,24.14
2016-08-14T11:14:15.837Z,24.19
2016-08-14T11:15:15.799Z,24.27
2016-08-14T11:16:15.806Z,24.33
2016-08-14T11:17:15.777Z,24.4
2016-08-14T11:18:15.808Z,24.54
2016-08-14T11:19:15.792Z,24.58
2016-08-14T11:20:15.809Z,24.78
2016-08-14T11:21:15.811Z,24.71
2016-08-14T11:22:15.810Z,24.58
2016-08-14T11:23:15.830Z,24.49
2016-08-14T11:24:15.821Z,24.32
2016-08-14T11:25:15.838Z,24.36
2016-08-14T11:26:15.864Z,24.22
2016-08-14T11:27:15.845Z,24.19
2016-08-14T11:28:15.830Z,24.19
2016-08-14T11:29:15.828Z,24.15
2016-08-14T11:30:15.846Z,24.11
2016-08-14T11:31:15.870Z,23.87
2016-08-14T11:32:15.832Z,23.9
2016-08-14T11:33:15.818Z,23.81
2016-08-14T11:34:15.820Z,23.93
2016-08-14T11:35:15.854Z,23.93
2016-08-14T11:36:15.872Z,24.02
2016-08-14T11:37:15.852Z,24.11
2016-08-14T11:38:15.868Z,24.24
2016-08-14T11:39:15.832Z,24.29
2016-08-14T11:40:15.872Z,24.3
2016-08-14T11:41:15.846Z,24.4
2016-08-14T11:42:15.882Z,24.48
2016-08-14T11:43:15.839Z,24.55
2016-08-14T11:44:15.847Z,24.52
2016-08-14T11:45:16.047Z,24.45
2016-08-14T11:46:15.862Z,24.39
2016-08-14T11:47:15.862Z,24.3
2016-08-14T11:48:15.864Z,24.26
2016-08-14T11:49:15.891Z,24.12
2016-08-14T11:50:16.621Z,24
2016-08-14T11:51:15.877Z,23.85
2016-08-14T11:52:15.888Z,23.81
2016-08-14T11:53:15.897Z,23.75
2016-08-14T11:54:15.890Z,23.77
2016-08-14T11:55:15.903Z,23.72
2016-08-14T11:56:15.885Z,23.7
2016-08-14T11:57:15.898Z,23.63
2016-08-14T11:58:15.878Z,23.62
2016-08-14T11:59:15.915Z,23.45
2016-08-14T12:00:15.902Z,23.48
2016-08-14T12:01:15.913Z,23.45
2016-08-14T12:02:15.903Z,23.42
2016-08-14T12:03:15.898Z,23.38
2016-08-14T12:04:15.900Z,23.42
2016-08-14T12:05:15.902Z,23.5
2016-08-14T12:06:15.900Z,23.47
2016-08-14T12:07:15.894Z,23.56
2016-08-14T12:08:15.902Z,23.6
2016-08-14T12:09:15.942Z,23.71
2016-08-14T12:10:15.914Z,23.71
2016-08-14T12:11:16.654Z,23.78
2016-08-14T12:12:16.653Z,23.78
2016-08-14T12:13:16.454Z,23.79
2016-08-14T12:14:15.977Z,23.74
2016-08-14T12:15:15.907Z,23.92
2016-08-14T12:16:15.908Z,23.93
2016-08-14T12:17:15.921Z,24.04
2016-08-14T12:18:15.923Z,24.17
2016-08-14T12:19:15.923Z,24.17
2016-08-14T12:20:15.913Z,24.19
2016-08-14T12:21:15.928Z,24.22
2016-08-14T12:22:15.929Z,24.26
2016-08-14T12:23:15.939Z,24.21
2016-08-14T12:24:15.959Z,24.22
2016-08-14T12:25:15.943Z,24.12
2016-08-14T12:26:15.952Z,24.26
2016-08-14T12:27:15.942Z,24.18
2016-08-14T12:28:15.950Z,23.97
2016-08-14T12:29:15.943Z,23.97
2016-08-14T12:30:15.959Z,23.85
2016-08-14T12:31:15.970Z,23.84
2016-08-14T12:34:15.979Z,23.56
2016-08-14T12:35:16.002Z,23.42
2016-08-14T12:36:15.977Z,23.38
2016-08-14T12:37:15.963Z,23.25
2016-08-14T12:38:15.957Z,23.26
2016-08-14T12:39:16.704Z,23.29
2016-08-14T12:40:15.985Z,23.22
2016-08-14T12:41:15.980Z,23.15
2016-08-14T12:42:15.984Z,23.12
2016-08-14T12:43:15.997Z,23.15
2016-08-14T12:44:15.982Z,23.18
2016-08-14T12:45:16.011Z,23.29
2016-08-14T12:46:15.995Z,23.28
2016-08-14T12:47:15.983Z,23.29
2016-08-14T12:48:16.003Z,23.22
2016-08-14T12:49:15.997Z,23.24
2016-08-14T12:50:16.016Z,23.22
2016-08-14T12:51:15.999Z,23.15
2016-08-14T12:52:16.252Z,23.09
2016-08-14T12:53:16.029Z,23.07
2016-08-14T12:54:16.036Z,23.04
2016-08-14T12:55:16.013Z,22.96
2016-08-14T12:56:16.040Z,23.03
2016-08-14T12:57:16.020Z,23.12
2016-08-14T12:58:16.002Z,23.24
2016-08-14T12:59:16.030Z,23.4
2016-08-14T13:00:16.037Z,23.52